Data for 02/02/2013

Time Sea-Level Adjusted Pressure Absolute Pressure Temperature Relative Humidity Dew Point   
(mb) (inHg) (mb) (inHg) (C) (F) (%) (C) (F)
00:05 1025 30.27 854 25.22 -1.8 28.8 62 -8.1 17.5
00:10 1025 30.27 854 25.22 -2.1 28.3 64 -8 17.5
00:15 1025 30.27 854 25.22 -1.9 28.5 62 -8.4 16.9
00:20 1025 30.27 855 25.25 -2.3 27.9 63 -8.3 17
00:25 1025 30.27 855 25.25 -2.9 26.7 66 -8.5 16.7
00:30 1025 30.27 855 25.25 -2.7 27.2 63 -8.7 16.4
00:35 1025 30.27 855 25.25 -2.2 28.1 62 -8.5 16.7
00:40 1025 30.27 855 25.25 -2 28.4 61 -8.4 16.8
00:45 1025 30.27 855 25.25 -2.3 27.9 63 -8.5 16.7
00:50 1025 30.27 855 25.25 -2.3 27.8 62 -8.7 16.4
00:55 1026 30.3 855 25.25 -2.5 27.4 64 -8.4 16.9
01:00 1026 30.3 855 25.25 -2.8 26.9 64 -8.7 16.4
01:05 1026 30.3 855 25.25 -2.5 27.5 61 -9.1 15.6
01:10 1026 30.3 855 25.25 -2.1 28.3 58 -9.2 15.4
01:15 1026 30.3 855 25.25 -1.7 28.9 58 -8.8 16.1
01:20 1026 30.3 855 25.25 -2.2 28.1 60 -8.9 16
01:25 1026 30.3 855 25.25 -2.9 26.8 62 -9.1 15.6
01:30 1026 30.3 855 25.25 -3.4 25.9 66 -8.9 15.9
01:35 1026 30.3 855 25.25 -3.6 25.6 66 -8.9 15.9
01:40 1026 30.3 855 25.25 -3.6 25.4 65 -9.4 15.2
01:45 1026 30.3 855 25.25 -3.7 25.4 65 -9.4 15.2
01:50 1026 30.3 855 25.25 -3.4 25.9 65 -9.1 15.5
01:55 1026 30.3 855 25.25 -2.5 27.6 62 -8.8 16.1
02:00 1026 30.3 855 25.25 -2 28.4 60 -8.7 16.3
02:05 1026 30.3 855 25.25 -2.2 28.1 61 -8.7 16.3
02:10 1026 30.3 855 25.25 -2.2 28 61 -8.8 16.2
02:15 1026 30.3 855 25.25 -2.6 27.3 62 -9 15.8
02:20 1026 30.3 855 25.25 -3.5 25.8 65 -9 15.7
02:25 1026 30.3 855 25.25 -3.5 25.8 64 -9.3 15.3
02:30 1026 30.3 855 25.25 -3.3 26.1 64 -9.2 15.5
02:35 1026 30.3 855 25.25 -3 26.6 63 -9 15.8
02:40 1026 30.3 855 25.25 -2.5 27.4 61 -9.1 15.6
02:45 1026 30.3 855 25.25 -3.1 26.4 65 -8.7 16.3
02:50 1026 30.3 855 25.25 -3.8 25.2 68 -8.8 16.1
02:55 1026 30.3 855 25.25 -4 24.8 69 -8.8 16.2
03:00 1026 30.3 855 25.25 -3.7 25.4 67 -8.9 15.9
03:05 1026 30.3 855 25.25 -3.8 25.2 68 -8.9 16
03:10 1026 30.3 855 25.25 -3.7 25.3 66 -9.1 15.6
03:15 1026 30.3 856 25.28 -3.6 25.5 66 -9 15.8
03:20 1026 30.3 856 25.28 -3.2 26.3 63 -9.2 15.4
03:25 1026 30.3 856 25.28 -3.3 26 66 -8.8 16.1
03:30 1026 30.3 856 25.28 -3.8 25.1 67 -9 15.8
03:35 1026 30.3 856 25.28 -4.1 24.6 67 -9.3 15.2
03:40 1027 30.33 856 25.28 -4.1 24.7 67 -9.4 15.2
03:45 1027 30.33 856 25.28 -4.2 24.5 67 -9.4 15.2
03:50 1027 30.33 856 25.28 -3.9 25 67 -9.2 15.4
03:55 1027 30.33 856 25.28 -4.1 24.7 67 -9.3 15.2
04:00 1027 30.33 856 25.28 -4.2 24.4 69 -9.2 15.5
04:05 1027 30.33 856 25.28 -4.3 24.3 68 -9.3 15.2
04:10 1027 30.33 856 25.28 -4.4 24.1 69 -9.3 15.3
04:15 1027 30.33 856 25.28 -4.6 23.8 69 -9.5 15
04:20 1027 30.33 856 25.28 -4.7 23.5 69 -9.5 15
04:25 1027 30.33 856 25.28 -4.8 23.4 70 -9.5 14.9
04:30 1026 30.3 856 25.28 -4.7 23.6 70 -9.2 15.4
04:35 1026 30.3 856 25.28 -4.7 23.5 70 -9.4 15.2
04:40 1026 30.3 856 25.28 -4.7 23.5 69 -9.5 14.9
04:45 1026 30.3 856 25.28 -4.8 23.4 70 -9.4 15
04:50 1026 30.3 856 25.28 -4.6 23.7 68 -9.6 14.6
04:55 1026 30.3 856 25.28 -4.5 23.9 68 -9.5 14.9
05:00 1027 30.33 856 25.28 -4.4 24.2 69 -9.3 15.3
05:05 1027 30.33 856 25.28 -4.3 24.2 70 -9.1 15.7
05:10 1027 30.33 856 25.28 -4.6 23.8 71 -9 15.7
05:15 1027 30.33 856 25.28 -4.8 23.4 71 -9.3 15.3
05:20 1027 30.33 856 25.28 -4.9 23.2 70 -9.5 14.9
05:25 1027 30.33 856 25.28 -5.1 22.9 73 -9.2 15.4
05:30 1027 30.33 856 25.28 -5.1 22.8 70 -9.7 14.5
05:35 1027 30.33 856 25.28 -4.9 23.2 69 -9.7 14.6
05:40 1027 30.33 856 25.28 -5.1 22.9 72 -9.4 15.1
05:45 1027 30.33 856 25.28 -5.4 22.3 72 -9.6 14.6
05:50 1027 30.33 856 25.28 -5.4 22.2 73 -9.6 14.8
05:55 1027 30.33 856 25.28 -5.2 22.6 70 -9.9 14.2
06:00 1027 30.33 856 25.28 -4.9 23.2 69 -9.7 14.6
06:05 1027 30.33 856 25.28 -5 23 70 -9.6 14.7
06:10 1027 30.33 856 25.28 -5.2 22.6 70 -9.8 14.3
06:15 1027 30.33 856 25.28 -5.2 22.6 71 -9.8 14.4
06:20 1027 30.33 856 25.28 -5.3 22.5 71 -9.8 14.4
06:25 1027 30.33 856 25.28 -5.4 22.3 71 -9.9 14.2
06:30 1027 30.33 856 25.28 -5.5 22.1 72 -9.7 14.5
06:35 1027 30.33 856 25.28 -5.5 22.1 72 -9.8 14.4
06:40 1027 30.33 856 25.28 -5.4 22.2 71 -9.8 14.3
06:45 1027 30.33 856 25.28 -5.5 22.2 71 -9.8 14.3
06:50 1027 30.33 856 25.28 -5.6 22 73 -9.7 14.6
06:55 1027 30.33 856 25.28 -5.5 22.1 72 -9.7 14.5
07:00 1027 30.33 856 25.28 -5.5 22.1 73 -9.6 14.7
07:05 1027 30.33 856 25.28 -5.4 22.2 72 -9.7 14.5
07:10 1027 30.33 856 25.28 -5.5 22.1 71 -9.9 14.2
07:15 1027 30.33 856 25.28 -5.6 21.9 73 -9.8 14.4
07:20 1027 30.33 856 25.28 -5.5 22.1 72 -9.8 14.4
07:25 1027 30.33 856 25.28 -5.3 22.5 74 -9.2 15.4
07:30 1027 30.33 856 25.28 -5.2 22.6 71 -9.7 14.6
07:35 1027 30.33 856 25.28 -5.4 22.2 71 -9.9 14.2
07:40 1027 30.33 857 25.31 -5.3 22.4 71 -9.8 14.3
07:45 1027 30.33 857 25.31 -5.3 22.4 72 -9.6 14.8
07:50 1027 30.33 857 25.31 -5.4 22.4 70 -10 14.1
07:55 1027 30.33 857 25.31 -5.6 21.9 72 -9.9 14.1
08:00 1027 30.33 857 25.31 -5.5 22.1 73 -9.6 14.7
08:05 1027 30.33 857 25.31 -5.3 22.5 72 -9.6 14.7
08:10 1028 30.36 857 25.31 -5.5 22.1 73 -9.6 14.7
08:15 1028 30.36 857 25.31 -5.9 21.3 74 -9.9 14.3
08:20 1028 30.36 857 25.31 -5.9 21.5 72 -10.2 13.6
08:25 1028 30.36 857 25.31 -6 21.2 72 -10.2 13.6
08:30 1028 30.36 857 25.31 -6 21.2 73 -10.2 13.7
08:35 1028 30.36 857 25.31 -6 21.2 72 -10.3 13.5
08:40 1028 30.36 857 25.31 -5.9 21.4 72 -10.1 13.7
08:45 1028 30.36 857 25.31 -5.7 21.7 73 -9.8 14.4
08:50 1028 30.36 857 25.31 -5.7 21.8 71 -10.2 13.7
08:55 1028 30.36 857 25.31 -5.7 21.8 71 -10.1 13.9
09:00 1028 30.36 857 25.31 -5.9 21.4 72 -10.2 13.6
09:05 1028 30.36 857 25.31 -5.9 21.3 72 -10.3 13.5
09:10 1028 30.36 857 25.31 -6 21.2 72 -10.3 13.4
09:15 1028 30.36 857 25.31 -5.6 21.9 70 -10.3 13.5
09:20 1028 30.36 857 25.31 -5.3 22.5 69 -10 13.9
09:25 1028 30.36 857 25.31 -5.2 22.6 69 -10 14
09:30 1028 30.36 858 25.34 -4.7 23.5 66 -10.2 13.6
09:35 1028 30.36 858 25.34 -4.6 23.8 67 -9.8 14.3
09:40 1028 30.36 858 25.34 -4.8 23.4 68 -9.8 14.3
09:45 1028 30.36 858 25.34 -4.8 23.4 68 -9.8 14.3
09:50 1028 30.36 858 25.34 -4.2 24.4 66 -9.7 14.5
09:55 1029 30.39 858 25.34 -3.8 25.1 64 -9.6 14.7
10:00 1028 30.36 858 25.34 -3.9 25 65 -9.5 14.9
10:05 1028 30.36 858 25.34 -4.1 24.6 66 -9.5 14.9
10:10 1028 30.36 858 25.34 -3.8 25.2 64 -9.7 14.6
10:15 1028 30.36 858 25.34 -3.4 25.9 63 -9.5 14.9
10:20 1028 30.36 858 25.34 -3 26.5 61 -9.4 15
10:25 1028 30.36 858 25.34 -2.3 27.9 59 -9.2 15.4
10:30 1028 30.36 858 25.34 -1.4 29.5 56 -9 15.9
10:35 1028 30.36 858 25.34 -2 28.5 60 -8.7 16.3
10:40 1028 30.36 858 25.34 -1.9 28.6 58 -9 15.8
10:45 1028 30.36 858 25.34 -1.6 29.1 57 -9 15.9
10:50 1028 30.36 858 25.34 -1.2 29.8 56 -9 15.8
10:55 1028 30.36 858 25.34 -0.6 31 53 -8.9 16
11:00 1028 30.36 858 25.34 -0.4 31.2 54 -8.6 16.5
11:05 1028 30.36 858 25.34 -0.2 31.7 53 -8.7 16.3
11:10 1028 30.36 858 25.34 0.1 32.2 51 -8.9 16
11:15 1028 30.36 858 25.34 0.6 33.2 50 -8.7 16.4
11:20 1029 30.39 858 25.34 1.4 34.6 47 -8.6 16.4
11:25 1029 30.39 858 25.34 2 35.5 46 -8.3 17
11:30 1029 30.39 858 25.34 2.1 35.8 46 -8.3 17
11:35 1029 30.39 858 25.34 1.8 35.3 47 -8.3 17.1
11:40 1028 30.36 858 25.34 1.8 35.2 48 -8.1 17.5
11:45 1028 30.36 858 25.34 2 35.5 47 -8.3 17.1
11:50 1028 30.36 858 25.34 2.1 35.8 45 -8.7 16.3
11:55 1028 30.36 858 25.34 2.6 36.7 43 -8.7 16.3
12:00 1028 30.36 858 25.34 2.9 37.2 42 -8.7 16.3
12:05 1028 30.36 858 25.34 2.8 37.1 43 -8.6 16.6
12:10 1029 30.39 858 25.34 3.1 37.6 42 -8.7 16.3
12:15 1029 30.39 858 25.34 3.4 38.1 42 -8.4 16.8
12:20 1028 30.36 858 25.34 4.1 39.4 39 -8.7 16.3
12:25 1028 30.36 858 25.34 4.7 40.5 36 -9.1 15.7
12:30 1028 30.36 858 25.34 4.4 39.9 37 -9.1 15.7
12:35 1028 30.36 858 25.34 4.5 40.2 37 -8.9 16
12:40 1028 30.36 858 25.34 4 39.3 41 -8.2 17.3
12:45 1028 30.36 857 25.31 3.3 37.9 42 -8.5 16.8
12:50 1028 30.36 857 25.31 3.7 38.7 40 -8.5 16.7
12:55 1028 30.36 857 25.31 3.8 38.8 41 -8.4 16.9
13:00 1028 30.36 857 25.31 3.4 38.1 41 -8.7 16.3
13:05 1028 30.36 857 25.31 3.7 38.7 40 -8.8 16.2
13:10 1028 30.36 857 25.31 4.1 39.5 39 -8.5 16.6
13:15 1028 30.36 857 25.31 4.8 40.6 37 -8.9 16
13:20 1028 30.36 857 25.31 5.3 41.5 37 -8.2 17.2
13:25 1028 30.36 857 25.31 5.3 41.6 38 -7.8 18
13:30 1028 30.36 857 25.31 5.4 41.7 37 -8.3 17
13:35 1028 30.36 857 25.31 3.8 38.9 39 -9 15.8
13:40 1028 30.36 857 25.31 4.4 39.9 36 -9.2 15.4
13:45 1028 30.36 857 25.31 4.9 40.8 37 -8.7 16.3
13:50 1027 30.33 857 25.31 5.2 41.3 36 -8.6 16.6
13:55 1027 30.33 857 25.31 4.9 40.8 38 -8.2 17.2
14:00 1027 30.33 857 25.31 4.4 39.9 37 -9 15.8
14:05 1027 30.33 856 25.28 4.5 40.1 37 -8.9 16
14:10 1027 30.33 856 25.28 4.9 40.9 37 -8.6 16.6
14:15 1027 30.33 856 25.28 4.5 40 39 -8.2 17.3
14:20 1027 30.33 856 25.28 4 39.2 40 -8.4 16.9
14:25 1027 30.33 856 25.28 4.4 40 40 -8.1 17.4
14:30 1027 30.33 856 25.28 4.7 40.5 39 -8.1 17.5
14:35 1027 30.33 856 25.28 5 41 36 -8.8 16.2
14:40 1027 30.33 856 25.28 5.2 41.4 36 -8.8 16.2
14:45 1027 30.33 856 25.28 5.4 41.8 37 -8 17.5
14:50 1027 30.33 856 25.28 5.2 41.4 37 -8.4 16.9
14:55 1027 30.33 856 25.28 5.3 41.6 37 -8.2 17.2
15:00 1027 30.33 856 25.28 5.4 41.7 36 -8.6 16.5
15:05 1027 30.33 856 25.28 5.6 42 37 -8.1 17.4
15:10 1027 30.33 856 25.28 5.8 42.4 35 -8.5 16.7
15:15 1026 30.3 856 25.28 5.8 42.4 35 -8.5 16.7
15:20 1026 30.3 856 25.28 5.6 42.1 37 -7.9 17.8
15:25 1026 30.3 856 25.28 5.2 41.3 38 -8.2 17.3
15:30 1026 30.3 856 25.28 5.4 41.8 35 -8.8 16.2
15:35 1026 30.3 856 25.28 6 42.9 35 -8.3 17.1
15:40 1026 30.3 856 25.28 6 42.8 35 -8.2 17.2
15:45 1026 30.3 856 25.28 6 42.8 36 -8.1 17.5
15:50 1026 30.3 856 25.28 6 42.8 34 -8.6 16.4
15:55 1026 30.3 856 25.28 6.1 42.9 34 -8.8 16.2
16:00 1026 30.3 856 25.28 5.7 42.3 36 -8.4 16.9
16:05 1026 30.3 856 25.28 5.3 41.5 36 -8.5 16.7
16:10 1026 30.3 856 25.28 4.6 40.4 42 -7.1 19.1
16:15 1026 30.3 855 25.25 3.5 38.3 44 -7.6 18.3
16:20 1026 30.3 855 25.25 3.3 37.9 42 -8.3 17
16:25 1026 30.3 855 25.25 2.9 37.2 43 -8.4 16.9
16:30 1026 30.3 855 25.25 3 37.5 42 -8.5 16.6
16:35 1026 30.3 855 25.25 3.2 37.7 43 -8.2 17.3
16:40 1026 30.3 855 25.25 3.3 38 42 -8.3 17.1
16:45 1026 30.3 855 25.25 3.4 38.2 42 -8.3 17.1
16:50 1026 30.3 855 25.25 3.9 39.1 41 -8 17.6
16:55 1026 30.3 855 25.25 4 39.3 41 -8.1 17.4
17:00 1026 30.3 855 25.25 4.4 40 40 -7.9 17.7
17:05 1026 30.3 855 25.25 4.6 40.2 37 -8.8 16.1
17:10 1026 30.3 855 25.25 4.4 40 38 -8.7 16.3
17:15 1026 30.3 855 25.25 4.4 40 39 -8.4 16.8
17:20 1026 30.3 855 25.25 4.5 40.1 37 -8.9 16.1
17:25 1026 30.3 855 25.25 5 40.9 36 -8.7 16.3
17:30 1026 30.3 855 25.25 5.4 41.8 35 -8.8 16.2
17:35 1026 30.3 855 25.25 5.8 42.4 35 -8.6 16.4
17:40 1026 30.3 855 25.25 5.4 41.7 36 -8.6 16.6
17:45 1026 30.3 855 25.25 5.1 41.2 36 -8.7 16.4
17:50 1026 30.3 855 25.25 4.8 40.7 38 -8.4 16.8
17:55 1026 30.3 855 25.25 4.7 40.5 37 -8.7 16.4
18:00 1026 30.3 855 25.25 4.5 40.1 39 -8.4 17
18:05 1026 30.3 855 25.25 4.1 39.4 40 -8.4 16.9
18:10 1026 30.3 855 25.25 3.5 38.3 41 -8.7 16.4
18:15 1026 30.3 855 25.25 3.4 38.1 41 -8.6 16.5
18:20 1026 30.3 855 25.25 3 37.4 43 -8.4 16.9
18:25 1026 30.3 855 25.25 2.4 36.3 45 -8.2 17.2
18:30 1026 30.3 855 25.25 1.8 35.2 49 -7.7 18.1
18:35 1026 30.3 855 25.25 1.2 34.1 51 -7.8 17.9
18:40 1026 30.3 855 25.25 0.8 33.4 53 -7.8 18
18:45 1026 30.3 855 25.25 0.6 33.1 55 -7.5 18.5
18:50 1026 30.3 855 25.25 0.2 32.3 54 -8.1 17.4
18:55 1026 30.3 855 25.25 0.1 32.1 55 -8 17.7
19:00 1026 30.3 855 25.25 -0.1 31.9 56 -7.8 17.9
19:05 1026 30.3 855 25.25 0 32.1 56 -7.7 18.2
19:10 1026 30.3 855 25.25 0 32 57 -7.6 18.4
19:15 1026 30.3 855 25.25 -0 31.9 57 -7.6 18.3
19:20 1026 30.3 855 25.25 0 32 57 -7.4 18.6
19:25 1026 30.3 855 25.25 -0 32 58 -7.4 18.7
19:30 1026 30.3 855 25.25 0.1 32.1 57 -7.4 18.7
19:35 1026 30.3 855 25.25 -0 32 58 -7.3 18.9
19:40 1026 30.3 855 25.25 0 32.1 57 -7.4 18.7
19:45 1026 30.3 855 25.25 0.1 32.2 58 -7.2 19.1
19:50 1026 30.3 855 25.25 0.1 32.2 59 -7.1 19.3
19:55 1026 30.3 855 25.25 0 32.1 59 -7 19.4
20:00 1026 30.3 855 25.25 -0.2 31.6 61 -6.9 19.5
20:05 1026 30.3 855 25.25 -0.4 31.3 61 -7.1 19.3
20:10 1026 30.3 855 25.25 -0.4 31.3 61 -7.1 19.2
20:15 1026 30.3 855 25.25 -0.3 31.4 60 -7.2 19
20:20 1026 30.3 855 25.25 -0.1 31.9 59 -7.2 19
20:25 1026 30.3 855 25.25 0 32.1 60 -6.7 19.9
20:30 1026 30.3 855 25.25 -0.1 31.9 59 -7.1 19.2
20:35 1026 30.3 855 25.25 -0.2 31.7 60 -7.1 19.2
20:40 1026 30.3 855 25.25 -0.5 31.2 60 -7.2 19
20:45 1026 30.3 855 25.25 -0.5 31.1 60 -7.3 18.9
20:50 1026 30.3 855 25.25 -0.5 31 61 -7.2 19
20:55 1026 30.3 855 25.25 -0.5 31.2 60 -7.2 19
21:00 1026 30.3 855 25.25 -0.5 31.1 60 -7.3 18.9
21:05 1026 30.3 855 25.25 -0.5 31.1 60 -7.3 18.9
21:10 1026 30.3 855 25.25 -0.5 31.1 61 -7.2 19
21:15 1026 30.3 855 25.25 -0.5 31.1 60 -7.4 18.6
21:20 1026 30.3 855 25.25 -0.4 31.2 60 -7.4 18.8
21:25 1025 30.27 855 25.25 -0.3 31.5 58 -7.4 18.6
21:30 1025 30.27 855 25.25 -0.6 30.9 60 -7.5 18.6
21:35 1025 30.27 855 25.25 -0.7 30.7 60 -7.6 18.4
21:40 1025 30.27 855 25.25 -0.7 30.7 60 -7.5 18.5
21:45 1025 30.27 855 25.25 -0.7 30.8 58 -8 17.7
21:50 1025 30.27 855 25.25 -0.5 31 58 -7.8 18
21:55 1025 30.27 855 25.25 -0.8 30.5 60 -7.7 18.2
22:00 1025 30.27 854 25.22 -0.9 30.3 60 -7.7 18.2
22:05 1025 30.27 854 25.22 -0.9 30.4 61 -7.5 18.5
22:10 1025 30.27 854 25.22 -0.7 30.7 60 -7.6 18.2
22:15 1025 30.27 854 25.22 -0.8 30.6 60 -7.6 18.2
22:20 1025 30.27 854 25.22 -0.8 30.5 59 -7.7 18.1
22:25 1025 30.27 854 25.22 -0.8 30.5 60 -7.7 18.1
22:30 1025 30.27 854 25.22 -0.9 30.4 60 -7.8 18
22:35 1025 30.27 854 25.22 -0.8 30.5 59 -7.8 17.9
22:40 1025 30.27 854 25.22 -0.7 30.7 58 -8 17.6
22:45 1025 30.27 854 25.22 -0.8 30.6 59 -7.9 17.8
22:50 1025 30.27 854 25.22 -1.1 30 59 -8.1 17.5
22:55 1025 30.27 854 25.22 -1.4 29.5 60 -8.3 17.1
23:00 1025 30.27 854 25.22 -1.6 29.1 60 -8.4 16.9
23:05 1025 30.27 854 25.22 -1.7 28.9 60 -8.6 16.6
23:10 1025 30.27 854 25.22 -1.5 29.3 59 -8.6 16.6
23:15 1025 30.27 854 25.22 -1.4 29.4 57 -8.8 16.1
23:20 1025 30.27 854 25.22 -1.3 29.6 57 -8.8 16.2
23:25 1024 30.24 854 25.22 -1.3 29.6 57 -8.9 16
23:30 1024 30.24 854 25.22 -1.2 29.9 57 -8.7 16.3
23:35 1024 30.24 854 25.22 -1.3 29.7 57 -8.8 16.2
23:40 1024 30.24 853 25.19 -1.2 29.8 56 -8.9 15.9
23:45 1024 30.24 853 25.19 -1.4 29.6 57 -8.9 16
23:50 1024 30.24 853 25.19 -1.6 29.1 57 -9 15.9
23:55 1024 30.24 853 25.19 -1.7 28.9 57 -9.1 15.6
24:00 1024 30.24 853 25.19 -1.7 28.9 58 -9 15.8